KJTC

Springerville Municipal Airport

Springerville, Arizona, USA
METAR KJTC 172210Z AUTO 00000KT 10SM FEW042 FEW065 BKN110 26/10 A3035 RMK AO2 LTG DSNT E
Observed Flight Rules
Aug-17 @ 22:10 UTC (25 minutes ago) Visual Flight Rules
Visibility Clouds
10 miles
  • Few at 4,200' AGL
  • Few at 6,500' AGL
  • Broken at 11,000' AGL
Temperatures Readings
Current 26°C / 79°F
Dewpoint 10°C / 50°F
Humidity 37%
Altimeter 30.35" Hg
Pressure 1028 hPa
Elevation 2150
METAR KJTC 172210Z AUTO 00000KT 10SM FEW042 FEW065 BKN110 26/10 A3035 RMK AO2 LTG DSNT E
Observed Flight Rules
Aug-17 @ 22:10 UTC
(25 minutes ago)
VFR
Clouds
  • Few at 4,200' AGL
  • Few at 6,500' AGL
  • Broken at 11,000' AGL
Temperature Dewpoint
26°C / 79°F 10°C / 50°F
Humidity Altimeter Pressure
37% 30.35" Hg 1028 hPa